sensor_id;sensor_type;location;lat;lon;timestamp;pressure;altitude;pressure_sealevel;temperature;humidity
57644;BME280;43474;46.510;6.686;2023-02-23T00:01:12;96242.50;;;7.34;100.00
57644;BME280;43474;46.510;6.686;2023-02-23T00:03:38;96251.13;;;7.41;100.00
57644;BME280;43474;46.510;6.686;2023-02-23T00:06:06;96241.03;;;7.38;100.00
57644;BME280;43474;46.510;6.686;2023-02-23T00:08:32;96243.44;;;7.39;100.00
57644;BME280;43474;46.510;6.686;2023-02-23T00:11:05;96234.06;;;7.25;100.00
57644;BME280;43474;46.510;6.686;2023-02-23T00:13:32;96240.66;;;7.34;100.00
57644;BME280;43474;46.510;6.686;2023-02-23T00:16:21;96246.97;;;7.33;100.00
57644;BME280;43474;46.510;6.686;2023-02-23T00:18:50;96248.56;;;7.34;100.00
57644;BME280;43474;46.510;6.686;2023-02-23T00:21:23;96245.13;;;7.34;100.00
57644;BME280;43474;46.510;6.686;2023-02-23T00:23:51;96234.31;;;7.23;100.00
57644;BME280;43474;46.510;6.686;2023-02-23T00:26:18;96236.38;;;7.21;100.00
57644;BME280;43474;46.510;6.686;2023-02-23T00:28:46;96228.66;;;7.20;100.00
57644;BME280;43474;46.510;6.686;2023-02-23T00:31:12;96234.72;;;7.20;100.00
57644;BME280;43474;46.510;6.686;2023-02-23T00:33:38;96226.03;;;7.20;100.00
57644;BME280;43474;46.510;6.686;2023-02-23T00:36:10;96232.69;;;7.22;100.00
57644;BME280;43474;46.510;6.686;2023-02-23T00:38:37;96227.47;;;7.16;100.00
57644;BME280;43474;46.510;6.686;2023-02-23T00:41:14;96228.38;;;7.10;100.00
57644;BME280;43474;46.510;6.686;2023-02-23T00:43:59;96223.59;;;7.00;100.00
57644;BME280;43474;46.510;6.686;2023-02-23T00:46:26;96214.75;;;6.94;100.00
57644;BME280;43474;46.510;6.686;2023-02-23T00:48:53;96214.88;;;6.99;100.00
57644;BME280;43474;46.510;6.686;2023-02-23T00:51:21;96222.75;;;7.06;100.00
57644;BME280;43474;46.510;6.686;2023-02-23T00:53:47;96225.66;;;6.98;100.00
57644;BME280;43474;46.510;6.686;2023-02-23T00:56:15;96211.53;;;6.92;100.00
57644;BME280;43474;46.510;6.686;2023-02-23T00:58:41;96214.75;;;6.94;100.00
57644;BME280;43474;46.510;6.686;2023-02-23T01:01:09;96222.78;;;6.99;100.00
57644;BME280;43474;46.510;6.686;2023-02-23T01:03:36;96221.03;;;6.93;100.00
57644;BME280;43474;46.510;6.686;2023-02-23T01:06:04;96206.03;;;6.94;100.00
57644;BME280;43474;46.510;6.686;2023-02-23T01:08:34;96212.25;;;6.99;100.00
57644;BME280;43474;46.510;6.686;2023-02-23T01:11:12;96221.75;;;7.00;100.00
57644;BME280;43474;46.510;6.686;2023-02-23T01:13:40;96190.75;;;6.84;100.00
57644;BME280;43474;46.510;6.686;2023-02-23T01:16:09;96206.25;;;6.92;100.00
57644;BME280;43474;46.510;6.686;2023-02-23T01:18:36;96215.34;;;6.96;100.00
57644;BME280;43474;46.510;6.686;2023-02-23T01:21:03;96210.28;;;6.95;100.00
57644;BME280;43474;46.510;6.686;2023-02-23T01:23:30;96203.63;;;6.92;100.00
57644;BME280;43474;46.510;6.686;2023-02-23T01:25:56;96200.91;;;6.99;100.00
57644;BME280;43474;46.510;6.686;2023-02-23T01:28:21;96206.41;;;6.97;100.00
57644;BME280;43474;46.510;6.686;2023-02-23T01:30:47;96208.09;;;6.92;100.00
57644;BME280;43474;46.510;6.686;2023-02-23T01:33:13;96209.09;;;6.91;100.00
57644;BME280;43474;46.510;6.686;2023-02-23T01:35:39;96201.19;;;6.91;100.00
57644;BME280;43474;46.510;6.686;2023-02-23T01:38:05;96198.63;;;6.84;100.00
57644;BME280;43474;46.510;6.686;2023-02-23T01:40:31;96199.25;;;6.86;100.00
57644;BME280;43474;46.510;6.686;2023-02-23T01:43:18;96197.41;;;6.87;100.00
57644;BME280;43474;46.510;6.686;2023-02-23T01:45:59;96202.03;;;6.91;100.00
57644;BME280;43474;46.510;6.686;2023-02-23T01:48:28;96192.16;;;6.87;100.00
57644;BME280;43474;46.510;6.686;2023-02-23T01:51:09;96201.19;;;6.91;100.00
57644;BME280;43474;46.510;6.686;2023-02-23T01:53:40;96199.59;;;6.90;100.00
57644;BME280;43474;46.510;6.686;2023-02-23T01:56:10;96191.34;;;6.86;100.00
57644;BME280;43474;46.510;6.686;2023-02-23T01:58:42;96190.09;;;6.89;100.00
57644;BME280;43474;46.510;6.686;2023-02-23T02:01:10;96202.97;;;6.97;100.00
57644;BME280;43474;46.510;6.686;2023-02-23T02:03:42;96186.22;;;6.91;100.00
57644;BME280;43474;46.510;6.686;2023-02-23T02:06:11;96197.47;;;6.98;100.00
57644;BME280;43474;46.510;6.686;2023-02-23T02:08:39;96194.75;;;7.05;100.00
57644;BME280;43474;46.510;6.686;2023-02-23T02:11:12;96186.13;;;6.98;100.00
57644;BME280;43474;46.510;6.686;2023-02-23T02:13:54;96179.63;;;7.00;100.00
57644;BME280;43474;46.510;6.686;2023-02-23T02:16:40;96185.09;;;6.99;100.00
57644;BME280;43474;46.510;6.686;2023-02-23T02:22:35;96180.66;;;6.99;100.00
57644;BME280;43474;46.510;6.686;2023-02-23T02:25:35;96186.44;;;7.08;100.00
57644;BME280;43474;46.510;6.686;2023-02-23T02:37:24;96168.28;;;7.00;100.00
57644;BME280;43474;46.510;6.686;2023-02-23T02:43:11;96159.88;;;6.91;100.00
57644;BME280;43474;46.510;6.686;2023-02-23T02:45:49;96161.47;;;6.92;100.00
57644;BME280;43474;46.510;6.686;2023-02-23T02:53:50;96164.03;;;6.81;100.00
57644;BME280;43474;46.510;6.686;2023-02-23T02:56:22;96153.66;;;6.67;100.00
57644;BME280;43474;46.510;6.686;2023-02-23T02:58:51;96149.91;;;6.75;100.00
57644;BME280;43474;46.510;6.686;2023-02-23T03:01:19;96150.78;;;6.69;100.00
57644;BME280;43474;46.510;6.686;2023-02-23T03:04:19;96156.84;;;6.69;100.00
57644;BME280;43474;46.510;6.686;2023-02-23T03:07:13;96156.69;;;6.64;100.00
57644;BME280;43474;46.510;6.686;2023-02-23T03:10:29;96166.06;;;6.60;100.00
57644;BME280;43474;46.510;6.686;2023-02-23T03:13:38;96149.44;;;6.60;100.00
57644;BME280;43474;46.510;6.686;2023-02-23T03:17:12;96159.56;;;6.63;100.00
57644;BME280;43474;46.510;6.686;2023-02-23T03:19:53;96170.28;;;6.61;100.00
57644;BME280;43474;46.510;6.686;2023-02-23T03:22:53;96167.41;;;6.44;100.00
57644;BME280;43474;46.510;6.686;2023-02-23T03:25:48;96163.91;;;6.51;100.00
57644;BME280;43474;46.510;6.686;2023-02-23T03:28:41;96168.91;;;6.59;100.00
57644;BME280;43474;46.510;6.686;2023-02-23T03:31:37;96169.13;;;6.57;100.00
57644;BME280;43474;46.510;6.686;2023-02-23T03:34:44;96156.81;;;6.51;100.00
57644;BME280;43474;46.510;6.686;2023-02-23T03:37:36;96164.72;;;6.51;100.00
57644;BME280;43474;46.510;6.686;2023-02-23T03:40:26;96170.59;;;6.53;100.00
57644;BME280;43474;46.510;6.686;2023-02-23T03:43:16;96150.31;;;6.54;100.00
57644;BME280;43474;46.510;6.686;2023-02-23T03:46:03;96153.38;;;6.51;100.00
57644;BME280;43474;46.510;6.686;2023-02-23T03:48:52;96145.47;;;6.51;100.00
57644;BME280;43474;46.510;6.686;2023-02-23T03:51:40;96153.91;;;6.59;100.00
57644;BME280;43474;46.510;6.686;2023-02-23T03:54:51;96152.31;;;6.58;100.00
57644;BME280;43474;46.510;6.686;2023-02-23T03:57:39;96150.25;;;6.60;100.00
57644;BME280;43474;46.510;6.686;2023-02-23T04:00:29;96149.00;;;6.44;100.00
57644;BME280;43474;46.510;6.686;2023-02-23T04:03:17;96158.88;;;6.49;100.00
57644;BME280;43474;46.510;6.686;2023-02-23T04:06:03;96144.75;;;6.43;100.00
57644;BME280;43474;46.510;6.686;2023-02-23T04:08:51;96140.84;;;6.28;100.00
57644;BME280;43474;46.510;6.686;2023-02-23T04:11:44;96149.00;;;6.44;100.00
57644;BME280;43474;46.510;6.686;2023-02-23T04:14:37;96147.63;;;6.60;100.00
57644;BME280;43474;46.510;6.686;2023-02-23T04:17:05;96144.03;;;6.55;100.00
57644;BME280;43474;46.510;6.686;2023-02-23T04:19:32;96149.91;;;6.57;100.00
57644;BME280;43474;46.510;6.686;2023-02-23T04:21:58;96161.53;;;6.67;100.00
57644;BME280;43474;46.510;6.686;2023-02-23T04:24:24;96157.47;;;6.71;100.00
57644;BME280;43474;46.510;6.686;2023-02-23T04:26:49;96173.25;;;6.71;100.00
57644;BME280;43474;46.510;6.686;2023-02-23T04:29:15;96153.66;;;6.67;100.00
57644;BME280;43474;46.510;6.686;2023-02-23T04:31:40;96151.50;;;6.58;100.00
57644;BME280;43474;46.510;6.686;2023-02-23T04:34:06;96162.78;;;6.65;100.00
57644;BME280;43474;46.510;6.686;2023-02-23T04:36:32;96167.75;;;6.73;100.00
57644;BME280;43474;46.510;6.686;2023-02-23T04:38:58;96170.91;;;6.63;100.00
57644;BME280;43474;46.510;6.686;2023-02-23T04:41:24;96153.25;;;6.64;100.00
57644;BME280;43474;46.510;6.686;2023-02-23T04:43:49;96151.13;;;6.54;100.00
57644;BME280;43474;46.510;6.686;2023-02-23T04:46:15;96174.19;;;6.59;100.00
57644;BME280;43474;46.510;6.686;2023-02-23T04:48:40;96167.34;;;6.51;100.00
57644;BME280;43474;46.510;6.686;2023-02-23T04:51:06;96165.25;;;6.60;100.00
57644;BME280;43474;46.510;6.686;2023-02-23T04:53:31;96161.88;;;6.53;100.00
57644;BME280;43474;46.510;6.686;2023-02-23T04:55:57;96177.59;;;6.59;100.00
57644;BME280;43474;46.510;6.686;2023-02-23T04:58:22;96172.91;;;6.61;100.00
57644;BME280;43474;46.510;6.686;2023-02-23T05:00:48;96163.00;;;6.63;100.00
57644;BME280;43474;46.510;6.686;2023-02-23T05:03:14;96160.44;;;6.57;100.00
57644;BME280;43474;46.510;6.686;2023-02-23T05:05:42;96174.84;;;6.72;100.00
57644;BME280;43474;46.510;6.686;2023-02-23T05:08:08;96159.56;;;6.63;100.00
57644;BME280;43474;46.510;6.686;2023-02-23T05:10:34;96169.28;;;6.62;100.00
57644;BME280;43474;46.510;6.686;2023-02-23T05:12:59;96143.47;;;6.53;100.00
57644;BME280;43474;46.510;6.686;2023-02-23T05:15:26;96164.28;;;6.54;100.00
57644;BME280;43474;46.510;6.686;2023-02-23T05:17:53;96164.03;;;6.62;100.00
57644;BME280;43474;46.510;6.686;2023-02-23T05:20:19;96165.69;;;6.57;100.00
57644;BME280;43474;46.510;6.686;2023-02-23T05:22:44;96154.34;;;6.56;100.00
57644;BME280;43474;46.510;6.686;2023-02-23T05:25:10;96164.66;;;6.58;100.00
57644;BME280;43474;46.510;6.686;2023-02-23T05:27:37;96158.75;;;6.62;100.00
57644;BME280;43474;46.510;6.686;2023-02-23T05:30:04;96166.59;;;6.69;100.00
57644;BME280;43474;46.510;6.686;2023-02-23T05:32:31;96168.72;;;6.79;100.00
57644;BME280;43474;46.510;6.686;2023-02-23T05:34:57;96166.06;;;6.79;100.00
57644;BME280;43474;46.510;6.686;2023-02-23T05:37:22;96158.91;;;6.67;100.00
57644;BME280;43474;46.510;6.686;2023-02-23T05:39:48;96153.78;;;6.72;100.00
57644;BME280;43474;46.510;6.686;2023-02-23T05:42:13;96140.75;;;6.59;100.00
57644;BME280;43474;46.510;6.686;2023-02-23T05:44:39;96155.03;;;6.70;100.00
57644;BME280;43474;46.510;6.686;2023-02-23T05:47:04;96150.34;;;6.72;100.00
57644;BME280;43474;46.510;6.686;2023-02-23T05:49:30;96146.94;;;6.71;100.00
57644;BME280;43474;46.510;6.686;2023-02-23T05:51:55;96136.31;;;6.78;100.00
57644;BME280;43474;46.510;6.686;2023-02-23T05:54:21;96151.72;;;6.74;100.00
57644;BME280;43474;46.510;6.686;2023-02-23T05:56:46;96128.69;;;6.70;100.00
57644;BME280;43474;46.510;6.686;2023-02-23T05:59:13;96134.03;;;6.63;100.00
57644;BME280;43474;46.510;6.686;2023-02-23T06:01:39;96140.38;;;6.56;100.00
57644;BME280;43474;46.510;6.686;2023-02-23T06:04:05;96138.38;;;6.51;100.00
57644;BME280;43474;46.510;6.686;2023-02-23T06:06:30;96139.75;;;6.35;100.00
57644;BME280;43474;46.510;6.686;2023-02-23T06:08:56;96140.06;;;6.27;100.00
57644;BME280;43474;46.510;6.686;2023-02-23T06:11:21;96143.16;;;6.17;100.00
57644;BME280;43474;46.510;6.686;2023-02-23T06:13:47;96150.75;;;6.07;100.00
57644;BME280;43474;46.510;6.686;2023-02-23T06:16:13;96154.50;;;6.18;100.00
57644;BME280;43474;46.510;6.686;2023-02-23T06:18:39;96152.44;;;6.20;100.00
57644;BME280;43474;46.510;6.686;2023-02-23T06:21:05;96164.97;;;6.25;100.00
57644;BME280;43474;46.510;6.686;2023-02-23T06:23:31;96160.13;;;6.21;100.00
57644;BME280;43474;46.510;6.686;2023-02-23T06:25:56;96160.47;;;6.32;100.00
57644;BME280;43474;46.510;6.686;2023-02-23T06:28:24;96158.09;;;6.24;100.00
57644;BME280;43474;46.510;6.686;2023-02-23T06:30:51;96171.78;;;6.32;100.00
57644;BME280;43474;46.510;6.686;2023-02-23T06:33:18;96173.00;;;6.30;100.00
57644;BME280;43474;46.510;6.686;2023-02-23T06:35:43;96172.31;;;6.41;100.00
57644;BME280;43474;46.510;6.686;2023-02-23T06:38:10;96156.00;;;6.32;100.00
57644;BME280;43474;46.510;6.686;2023-02-23T06:40:36;96176.19;;;6.38;100.00
57644;BME280;43474;46.510;6.686;2023-02-23T06:43:02;96172.31;;;6.41;100.00
57644;BME280;43474;46.510;6.686;2023-02-23T06:45:30;96170.06;;;6.44;100.00
57644;BME280;43474;46.510;6.686;2023-02-23T06:47:57;96186.81;;;6.50;100.00
57644;BME280;43474;46.510;6.686;2023-02-23T06:50:22;96181.13;;;6.53;100.00
57644;BME280;43474;46.510;6.686;2023-02-23T06:52:48;96179.06;;;6.55;100.00
57644;BME280;43474;46.510;6.686;2023-02-23T06:55:14;96185.94;;;6.56;100.00
57644;BME280;43474;46.510;6.686;2023-02-23T06:57:40;96185.66;;;6.64;100.00
57644;BME280;43474;46.510;6.686;2023-02-23T07:00:07;96180.41;;;6.64;100.00
57644;BME280;43474;46.510;6.686;2023-02-23T07:02:33;96175.66;;;6.73;100.00
57644;BME280;43474;46.510;6.686;2023-02-23T07:05:00;96186.28;;;6.85;100.00
57644;BME280;43474;46.510;6.686;2023-02-23T07:07:26;96174.50;;;6.87;100.00
57644;BME280;43474;46.510;6.686;2023-02-23T07:09:52;96177.56;;;6.84;100.00
57644;BME280;43474;46.510;6.686;2023-02-23T07:12:18;96190.81;;;6.96;100.00
57644;BME280;43474;46.510;6.686;2023-02-23T07:14:43;96180.06;;;6.97;100.00
57644;BME280;43474;46.510;6.686;2023-02-23T07:17:09;96188.53;;;6.99;100.00
57644;BME280;43474;46.510;6.686;2023-02-23T07:19:35;96195.13;;;7.09;100.00
57644;BME280;43474;46.510;6.686;2023-02-23T07:22:01;96193.59;;;7.19;100.00
57644;BME280;43474;46.510;6.686;2023-02-23T07:24:27;96186.50;;;7.20;100.00
57644;BME280;43474;46.510;6.686;2023-02-23T07:26:53;96184.00;;;7.25;100.00
57644;BME280;43474;46.510;6.686;2023-02-23T07:29:19;96192.66;;;7.32;100.00
57644;BME280;43474;46.510;6.686;2023-02-23T07:31:45;96184.94;;;7.31;100.00
57644;BME280;43474;46.510;6.686;2023-02-23T07:34:10;96183.03;;;7.38;100.00
57644;BME280;43474;46.510;6.686;2023-02-23T07:36:36;96184.56;;;7.45;100.00
57644;BME280;43474;46.510;6.686;2023-02-23T07:39:03;96185.88;;;7.55;100.00
57644;BME280;43474;46.510;6.686;2023-02-23T07:41:29;96192.06;;;7.60;100.00
57644;BME280;43474;46.510;6.686;2023-02-23T07:43:54;96188.34;;;7.68;100.00
57644;BME280;43474;46.510;6.686;2023-02-23T07:46:20;96186.53;;;7.80;100.00
57644;BME280;43474;46.510;6.686;2023-02-23T07:48:46;96188.06;;;7.88;100.00
57644;BME280;43474;46.510;6.686;2023-02-23T07:51:13;96189.69;;;8.00;100.00
57644;BME280;43474;46.510;6.686;2023-02-23T07:53:40;96178.81;;;8.09;100.00
57644;BME280;43474;46.510;6.686;2023-02-23T07:56:07;96186.44;;;8.28;100.00
57644;BME280;43474;46.510;6.686;2023-02-23T07:58:40;96177.25;;;8.31;100.00
57644;BME280;43474;46.510;6.686;2023-02-23T08:01:07;96164.50;;;8.28;100.00
57644;BME280;43474;46.510;6.686;2023-02-23T08:03:33;96186.03;;;8.43;100.00
57644;BME280;43474;46.510;6.686;2023-02-23T08:05:59;96176.16;;;8.50;100.00
57644;BME280;43474;46.510;6.686;2023-02-23T08:08:25;96173.50;;;8.74;100.00
57644;BME280;43474;46.510;6.686;2023-02-23T08:11:02;96176.59;;;8.94;100.00
57644;BME280;43474;46.510;6.686;2023-02-23T08:13:29;96178.50;;;9.22;100.00
57644;BME280;43474;46.510;6.686;2023-02-23T08:15:56;96180.59;;;9.20;100.00
57644;BME280;43474;46.510;6.686;2023-02-23T08:18:22;96167.28;;;9.44;100.00
57644;BME280;43474;46.510;6.686;2023-02-23T08:20:48;96172.06;;;10.04;100.00
57644;BME280;43474;46.510;6.686;2023-02-23T08:23:14;96163.25;;;9.98;100.00
57644;BME280;43474;46.510;6.686;2023-02-23T08:25:42;96174.97;;;9.86;100.00
57644;BME280;43474;46.510;6.686;2023-02-23T08:28:08;96170.00;;;9.61;100.00
57644;BME280;43474;46.510;6.686;2023-02-23T08:30:34;96180.38;;;9.50;100.00
57644;BME280;43474;46.510;6.686;2023-02-23T08:32:59;96173.09;;;9.57;100.00
57644;BME280;43474;46.510;6.686;2023-02-23T08:35:26;96184.97;;;9.83;100.00
57644;BME280;43474;46.510;6.686;2023-02-23T08:37:52;96168.31;;;10.45;100.00
57644;BME280;43474;46.510;6.686;2023-02-23T08:40:18;96152.63;;;11.21;100.00
57644;BME280;43474;46.510;6.686;2023-02-23T08:42:46;96156.75;;;11.12;100.00
57644;BME280;43474;46.510;6.686;2023-02-23T08:45:14;96167.69;;;10.77;100.00
57644;BME280;43474;46.510;6.686;2023-02-23T08:47:40;96169.31;;;10.61;100.00
57644;BME280;43474;46.510;6.686;2023-02-23T08:50:07;96156.41;;;10.31;100.00
57644;BME280;43474;46.510;6.686;2023-02-23T08:52:35;96154.81;;;10.30;100.00
57644;BME280;43474;46.510;6.686;2023-02-23T08:55:02;96159.53;;;10.61;100.00
57644;BME280;43474;46.510;6.686;2023-02-23T08:57:27;96157.50;;;10.69;100.00
57644;BME280;43474;46.510;6.686;2023-02-23T08:59:53;96145.34;;;10.90;100.00
57644;BME280;43474;46.510;6.686;2023-02-23T09:02:18;96151.34;;;11.46;100.00
57644;BME280;43474;46.510;6.686;2023-02-23T09:04:44;96157.59;;;12.10;100.00
57644;BME280;43474;46.510;6.686;2023-02-23T09:07:14;96153.66;;;12.50;100.00
57644;BME280;43474;46.510;6.686;2023-02-23T09:09:40;96152.94;;;13.07;100.00
57644;BME280;43474;46.510;6.686;2023-02-23T09:12:06;96146.75;;;12.91;100.00
57644;BME280;43474;46.510;6.686;2023-02-23T09:14:32;96147.59;;;12.55;100.00
57644;BME280;43474;46.510;6.686;2023-02-23T09:16:57;96152.34;;;12.53;100.00
57644;BME280;43474;46.510;6.686;2023-02-23T09:19:23;96150.72;;;12.47;100.00
57644;BME280;43474;46.510;6.686;2023-02-23T09:21:48;96139.84;;;12.96;100.00
57644;BME280;43474;46.510;6.686;2023-02-23T09:24:14;96153.47;;;13.62;100.00
57644;BME280;43474;46.510;6.686;2023-02-23T09:26:43;96155.16;;;13.99;100.00
57644;BME280;43474;46.510;6.686;2023-02-23T09:29:08;96138.63;;;14.17;100.00
57644;BME280;43474;46.510;6.686;2023-02-23T09:31:34;96145.59;;;14.43;100.00
57644;BME280;43474;46.510;6.686;2023-02-23T09:33:59;96140.78;;;14.45;100.00
57644;BME280;43474;46.510;6.686;2023-02-23T09:36:28;96145.03;;;14.36;100.00
57644;BME280;43474;46.510;6.686;2023-02-23T09:38:55;96150.94;;;14.59;100.00
57644;BME280;43474;46.510;6.686;2023-02-23T09:44:01;96155.13;;;14.95;100.00
57644;BME280;43474;46.510;6.686;2023-02-23T09:46:44;96156.22;;;14.94;100.00
57644;BME280;43474;46.510;6.686;2023-02-23T09:49:19;96160.25;;;14.71;100.00
57644;BME280;43474;46.510;6.686;2023-02-23T09:51:50;96155.44;;;14.79;100.00
57644;BME280;43474;46.510;6.686;2023-02-23T09:54:22;96155.19;;;14.70;100.00
57644;BME280;43474;46.510;6.686;2023-02-23T09:56:49;96168.53;;;14.70;100.00
57644;BME280;43474;46.510;6.686;2023-02-23T09:59:18;96173.84;;;14.85;100.00
57644;BME280;43474;46.510;6.686;2023-02-23T10:07:04;96169.47;;;13.82;100.00
57644;BME280;43474;46.510;6.686;2023-02-23T10:09:51;96159.38;;;13.74;100.00
57644;BME280;43474;46.510;6.686;2023-02-23T10:12:29;96160.53;;;14.55;100.00
57644;BME280;43474;46.510;6.686;2023-02-23T10:15:23;96163.47;;;14.73;100.00
57644;BME280;43474;46.510;6.686;2023-02-23T10:17:54;96156.25;;;14.74;100.00
57644;BME280;43474;46.510;6.686;2023-02-23T10:20:34;96149.28;;;14.98;100.00
57644;BME280;43474;46.510;6.686;2023-02-23T10:23:05;96144.81;;;14.58;98.68
57644;BME280;43474;46.510;6.686;2023-02-23T10:25:34;96155.97;;;14.40;100.00
57644;BME280;43474;46.510;6.686;2023-02-23T10:28:01;96148.25;;;14.28;100.00
57644;BME280;43474;46.510;6.686;2023-02-23T10:30:29;96149.84;;;14.34;100.00
57644;BME280;43474;46.510;6.686;2023-02-23T10:33:15;96145.88;;;14.62;100.00
57644;BME280;43474;46.510;6.686;2023-02-23T10:35:44;96141.56;;;14.87;100.00
57644;BME280;43474;46.510;6.686;2023-02-23T10:38:16;96133.00;;;14.90;99.21
57644;BME280;43474;46.510;6.686;2023-02-23T10:40:50;96153.25;;;15.06;99.66
57644;BME280;43474;46.510;6.686;2023-02-23T10:43:18;96143.63;;;15.10;99.20
57644;BME280;43474;46.510;6.686;2023-02-23T10:45:49;96133.09;;;15.44;100.00
57644;BME280;43474;46.510;6.686;2023-02-23T10:48:23;96143.47;;;15.46;98.83
57644;BME280;43474;46.510;6.686;2023-02-23T10:50:53;96150.63;;;15.61;97.37
57644;BME280;43474;46.510;6.686;2023-02-23T10:53:24;96149.84;;;15.65;99.54
57644;BME280;43474;46.510;6.686;2023-02-23T10:56:13;96147.22;;;15.50;95.71
57644;BME280;43474;46.510;6.686;2023-02-23T11:01:05;96127.78;;;15.34;100.00
57644;BME280;43474;46.510;6.686;2023-02-23T11:03:44;96140.75;;;15.71;96.72
57644;BME280;43474;46.510;6.686;2023-02-23T11:06:32;96132.63;;;15.32;95.04
57644;BME280;43474;46.510;6.686;2023-02-23T11:09:17;96133.56;;;14.92;99.51
57644;BME280;43474;46.510;6.686;2023-02-23T11:11:56;96143.22;;;14.62;100.00
57644;BME280;43474;46.510;6.686;2023-02-23T11:14:24;96132.00;;;14.55;100.00
57644;BME280;43474;46.510;6.686;2023-02-23T11:16:54;96131.72;;;14.31;100.00
57644;BME280;43474;46.510;6.686;2023-02-23T11:19:26;96144.22;;;13.90;100.00
57644;BME280;43474;46.510;6.686;2023-02-23T11:21:54;96129.56;;;13.92;100.00
57644;BME280;43474;46.510;6.686;2023-02-23T11:24:27;96144.72;;;13.92;100.00
57644;BME280;43474;46.510;6.686;2023-02-23T11:26:58;96141.03;;;14.08;100.00
57644;BME280;43474;46.510;6.686;2023-02-23T11:29:39;96123.44;;;13.92;100.00
57644;BME280;43474;46.510;6.686;2023-02-23T11:32:17;96129.31;;;14.60;100.00
57644;BME280;43474;46.510;6.686;2023-02-23T11:34:45;96122.91;;;14.66;100.00
57644;BME280;43474;46.510;6.686;2023-02-23T11:40:20;96121.47;;;15.15;99.90
57644;BME280;43474;46.510;6.686;2023-02-23T11:43:07;96121.72;;;15.18;99.72
57644;BME280;43474;46.510;6.686;2023-02-23T11:45:53;96115.03;;;15.21;97.82
57644;BME280;43474;46.510;6.686;2023-02-23T11:48:30;96115.72;;;15.47;94.66
57644;BME280;43474;46.510;6.686;2023-02-23T11:50:57;96103.25;;;15.32;95.67
57644;BME280;43474;46.510;6.686;2023-02-23T11:53:34;96106.09;;;15.46;92.59
57644;BME280;43474;46.510;6.686;2023-02-23T11:56:01;96090.19;;;15.20;95.70
57644;BME280;43474;46.510;6.686;2023-02-23T12:01:07;96096.59;;;15.24;96.83
57644;BME280;43474;46.510;6.686;2023-02-23T12:03:41;96087.06;;;15.08;97.69
57644;BME280;43474;46.510;6.686;2023-02-23T12:06:09;96088.94;;;15.08;96.12
57644;BME280;43474;46.510;6.686;2023-02-23T12:08:43;96097.94;;;15.27;94.66
57644;BME280;43474;46.510;6.686;2023-02-23T12:11:13;96090.38;;;15.39;96.02
57644;BME280;43474;46.510;6.686;2023-02-23T12:13:44;96087.28;;;15.22;93.62
57644;BME280;43474;46.510;6.686;2023-02-23T12:16:17;96076.59;;;15.22;96.68
57644;BME280;43474;46.510;6.686;2023-02-23T12:18:56;96071.34;;;14.96;95.37
57644;BME280;43474;46.510;6.686;2023-02-23T12:21:43;96086.59;;;15.45;93.77
57644;BME280;43474;46.510;6.686;2023-02-23T12:27:03;96083.75;;;15.81;96.00
57644;BME280;43474;46.510;6.686;2023-02-23T12:29:38;96069.25;;;15.92;90.40
57644;BME280;43474;46.510;6.686;2023-02-23T12:32:13;96075.84;;;16.05;91.32
57644;BME280;43474;46.510;6.686;2023-02-23T12:34:46;96070.53;;;16.00;91.07
57644;BME280;43474;46.510;6.686;2023-02-23T12:40:12;96073.34;;;15.80;90.29
57644;BME280;43474;46.510;6.686;2023-02-23T12:42:45;96070.97;;;15.78;90.97
57644;BME280;43474;46.510;6.686;2023-02-23T12:45:27;96062.50;;;15.56;91.80
57644;BME280;43474;46.510;6.686;2023-02-23T12:50:40;96052.88;;;15.65;95.37
57644;BME280;43474;46.510;6.686;2023-02-23T12:53:19;96067.59;;;15.57;93.62
57644;BME280;43474;46.510;6.686;2023-02-23T13:06:56;96051.50;;;16.07;89.09
57644;BME280;43474;46.510;6.686;2023-02-23T13:09:40;96051.66;;;15.86;90.13
57644;BME280;43474;46.510;6.686;2023-02-23T13:17:52;96058.25;;;15.05;93.58
57644;BME280;43474;46.510;6.686;2023-02-23T13:20:21;96044.34;;;15.13;94.66
57644;BME280;43474;46.510;6.686;2023-02-23T13:22:53;96046.97;;;15.18;92.49
57644;BME280;43474;46.510;6.686;2023-02-23T13:28:02;96037.84;;;14.65;97.45
57644;BME280;43474;46.510;6.686;2023-02-23T13:30:30;96045.31;;;14.68;95.13
57644;BME280;43474;46.510;6.686;2023-02-23T13:33:04;96050.88;;;14.71;96.31
57644;BME280;43474;46.510;6.686;2023-02-23T13:35:36;96043.72;;;14.57;97.06
57644;BME280;43474;46.510;6.686;2023-02-23T13:38:20;96045.78;;;14.80;97.07
57644;BME280;43474;46.510;6.686;2023-02-23T13:41:04;96052.69;;;14.91;93.83
57644;BME280;43474;46.510;6.686;2023-02-23T13:43:47;96050.72;;;15.17;94.49
57644;BME280;43474;46.510;6.686;2023-02-23T13:46:27;96042.44;;;15.19;94.93
57644;BME280;43474;46.510;6.686;2023-02-23T13:49:15;96044.00;;;15.25;92.57
57644;BME280;43474;46.510;6.686;2023-02-23T13:51:50;96042.00;;;14.91;93.53
57644;BME280;43474;46.510;6.686;2023-02-23T13:54:24;96040.31;;;15.16;92.72
57644;BME280;43474;46.510;6.686;2023-02-23T13:56:57;96048.47;;;14.80;92.89
57644;BME280;43474;46.510;6.686;2023-02-23T13:59:44;96052.28;;;14.38;93.85
57644;BME280;43474;46.510;6.686;2023-02-23T14:02:36;96044.03;;;14.09;95.10
57644;BME280;43474;46.510;6.686;2023-02-23T14:05:06;96037.66;;;13.75;97.09
57644;BME280;43474;46.510;6.686;2023-02-23T14:07:41;96030.72;;;13.53;99.16
57644;BME280;43474;46.510;6.686;2023-02-23T14:10:24;96026.41;;;13.37;100.00
57644;BME280;43474;46.510;6.686;2023-02-23T14:16:06;96022.38;;;13.19;100.00
57644;BME280;43474;46.510;6.686;2023-02-23T14:18:32;96030.13;;;13.31;98.39
57644;BME280;43474;46.510;6.686;2023-02-23T14:24:18;96024.81;;;13.31;98.81
57644;BME280;43474;46.510;6.686;2023-02-23T14:29:43;96021.13;;;13.52;97.43
57644;BME280;43474;46.510;6.686;2023-02-23T14:37:22;96013.13;;;13.62;98.07
57644;BME280;43474;46.510;6.686;2023-02-23T14:39:50;96009.16;;;13.60;97.67
57644;BME280;43474;46.510;6.686;2023-02-23T14:42:23;95997.16;;;13.52;95.99